Time;durP1;ratioP1;P1;durP2;ratioP2;P2;SDS_P1;SDS_P2;PMS_P1;PMS_P2;Temp;Humidity;BMP_temperature;BMP_pressure;BME280_temperature;BME280_humidity;BME280_pressure;Samples;Min_cycle;Max_cycle;Signal;HPM_P1;HPM_P2
2022/10/26 00:01:11;;;;;;;9.40;9.10;;;10.30;99.90;;;;;;5069221;28;20238;-86
2022/10/26 00:06:30;;;;;;;9.00;8.70;;;10.20;99.90;;;;;;5060191;28;20223;-86
2022/10/26 00:08:58;;;;;;;9.10;8.80;;;10.10;99.90;;;;;;5060351;28;20255;-86
2022/10/26 00:11:26;;;;;;;9.00;8.70;;;10.10;99.90;;;;;;5059708;28;20239;-86
2022/10/26 00:13:56;;;;;;;9.00;8.70;;;10.10;99.90;;;;;;5059774;28;20238;-86
2022/10/26 00:16:27;;;;;;;9.33;9.03;;;10.10;99.90;;;;;;5059729;28;20278;-86
2022/10/26 00:19:03;;;;;;;9.10;8.80;;;10.10;99.90;;;;;;5059786;28;20238;-85
2022/10/26 00:21:34;;;;;;;9.13;8.83;;;10.10;99.90;;;;;;5077014;28;20226;-86
2022/10/26 00:24:04;;;;;;;9.33;9.03;;;10.10;99.90;;;;;;5061368;28;20203;-86
2022/10/26 00:26:35;;;;;;;9.13;8.83;;;10.10;99.90;;;;;;5063550;28;20219;-85
2022/10/26 00:29:03;;;;;;;9.10;8.80;;;10.00;99.90;;;;;;5079855;28;20287;-86
2022/10/26 00:31:31;;;;;;;8.73;8.53;;;10.00;99.90;;;;;;5080633;28;20269;-86
2022/10/26 00:34:03;;;;;;;8.93;8.63;;;9.90;99.90;;;;;;5073388;28;20230;-86
2022/10/26 00:36:31;;;;;;;8.73;8.53;;;9.90;99.90;;;;;;5060622;28;20234;-85
2022/10/26 00:38:59;;;;;;;9.00;8.70;;;9.90;99.90;;;;;;5060247;28;20269;-86
2022/10/26 00:41:31;;;;;;;9.10;8.80;;;9.90;99.90;;;;;;5059394;28;20234;-86
2022/10/26 00:43:59;;;;;;;9.30;9.00;;;9.90;99.90;;;;;;5060528;28;20279;-86
2022/10/26 00:46:30;;;;;;;9.47;9.17;;;10.00;99.90;;;;;;5064075;28;20237;-86
2022/10/26 00:49:05;;;;;;;9.50;9.20;;;10.00;99.90;;;;;;5063400;28;20242;-85
2022/10/26 00:51:38;;;;;;;9.10;8.80;;;10.00;99.90;;;;;;5062886;28;20230;-86
2022/10/26 00:54:13;;;;;;;9.20;8.90;;;10.00;99.90;;;;;;5060167;28;20328;-86
2022/10/26 00:56:43;;;;;;;9.13;8.83;;;10.00;99.90;;;;;;5059308;28;20215;-85
2022/10/26 00:59:15;;;;;;;9.30;9.00;;;10.00;99.90;;;;;;5059369;28;20242;-86
2022/10/26 01:01:50;;;;;;;9.40;9.10;;;10.10;99.90;;;;;;5059255;28;20242;-86
2022/10/26 01:04:28;;;;;;;9.40;9.10;;;10.10;99.90;;;;;;5058873;28;20230;-85
2022/10/26 01:06:58;;;;;;;9.10;8.80;;;10.20;99.90;;;;;;5059800;28;20302;-86
2022/10/26 01:09:28;;;;;;;9.00;8.70;;;10.20;99.90;;;;;;5059565;28;20246;-86
2022/10/26 01:11:57;;;;;;;9.20;8.90;;;10.20;99.90;;;;;;5060642;28;20254;-86
2022/10/26 01:14:27;;;;;;;9.07;8.77;;;10.30;99.90;;;;;;5059687;28;20264;-85
2022/10/26 01:17:05;;;;;;;9.23;8.93;;;10.30;99.90;;;;;;5082483;28;20214;-86
2022/10/26 01:23:53;;;;;;;9.17;8.87;;;10.30;99.90;;;;;;5018496;28;20231;-86
2022/10/26 01:27:04;;;;;;;9.10;8.80;;;10.40;99.90;;;;;;5039322;28;20224;-86
2022/10/26 01:30:33;;;;;;;9.00;8.70;;;10.40;99.90;;;;;;5039050;28;20235;-86
2022/10/26 01:33:32;;;;;;;9.27;8.97;;;10.40;99.90;;;;;;4977144;28;20313;-86
2022/10/26 01:36:27;;;;;;;8.80;8.60;;;10.40;99.90;;;;;;5010301;28;20219;-86
2022/10/26 01:39:06;;;;;;;9.37;9.07;;;10.50;99.90;;;;;;5037903;28;20354;-85
2022/10/26 01:41:43;;;;;;;9.27;8.97;;;10.40;99.90;;;;;;5038567;28;20239;-85
2022/10/26 01:44:21;;;;;;;9.07;8.77;;;10.40;99.90;;;;;;5039100;28;20227;-85
2022/10/26 01:47:00;;;;;;;9.03;8.73;;;10.40;99.90;;;;;;5038229;28;20301;-85
2022/10/26 01:49:38;;;;;;;8.97;8.67;;;10.40;99.90;;;;;;5037976;28;20226;-85
2022/10/26 01:52:08;;;;;;;9.03;8.73;;;10.50;99.90;;;;;;5038146;28;20274;-84
2022/10/26 01:54:36;;;;;;;8.97;8.70;;;10.50;99.90;;;;;;5038382;28;20238;-85
2022/10/26 02:00:12;;;;;;;9.07;8.77;;;10.60;99.90;;;;;;5037987;28;20223;-86
2022/10/26 02:03:08;;;;;;;8.70;8.50;;;10.60;99.90;;;;;;5047380;28;20246;-83
2022/10/26 02:05:56;;;;;;;8.93;8.63;;;10.50;99.90;;;;;;5060528;28;20219;-83
2022/10/26 02:08:41;;;;;;;8.70;8.50;;;10.50;99.90;;;;;;5041912;28;20318;-85
2022/10/26 02:11:22;;;;;;;9.10;8.80;;;10.40;99.90;;;;;;5038617;28;20235;-85
2022/10/26 02:14:06;;;;;;;9.17;8.87;;;10.40;99.90;;;;;;5038485;28;20258;-85
2022/10/26 02:16:46;;;;;;;9.17;8.87;;;10.30;99.90;;;;;;5037871;28;20285;-85
2022/10/26 02:19:33;;;;;;;9.10;8.80;;;10.30;99.90;;;;;;5037579;28;20321;-85
2022/10/26 02:22:10;;;;;;;9.10;8.80;;;10.30;99.90;;;;;;5037944;28;20239;-85
2022/10/26 02:24:41;;;;;;;9.37;9.07;;;10.40;99.90;;;;;;5038473;28;20310;-85
2022/10/26 02:27:19;;;;;;;9.00;8.70;;;10.40;99.90;;;;;;5037912;28;20239;-85
2022/10/26 02:29:55;;;;;;;9.00;8.70;;;10.40;99.90;;;;;;5037862;28;20238;-85
2022/10/26 02:32:25;;;;;;;8.90;8.60;;;10.40;99.90;;;;;;5038117;28;20231;-86
2022/10/26 02:35:03;;;;;;;9.20;8.90;;;10.20;99.90;;;;;;5037867;28;20236;-86
2022/10/26 02:37:32;;;;;;;9.30;9.00;;;10.10;99.90;;;;;;5037660;28;20243;-85
2022/10/26 02:40:12;;;;;;;8.80;8.60;;;10.20;99.90;;;;;;5037502;28;20271;-85
2022/10/26 02:42:43;;;;;;;9.00;8.70;;;10.20;99.90;;;;;;5037545;28;20278;-85
2022/10/26 02:45:18;;;;;;;8.60;8.40;;;10.30;99.90;;;;;;5037989;28;20314;-85
2022/10/26 02:47:47;;;;;;;8.73;8.53;;;10.20;99.90;;;;;;5036854;28;20333;-85
2022/10/26 02:50:27;;;;;;;8.70;8.50;;;10.30;99.90;;;;;;5037377;28;20270;-85
2022/10/26 02:53:14;;;;;;;9.10;8.80;;;10.40;99.90;;;;;;5038219;28;20219;-86
2022/10/26 02:55:52;;;;;;;9.00;8.70;;;10.30;99.90;;;;;;5037693;28;20326;-86
2022/10/26 02:58:29;;;;;;;9.10;8.80;;;10.40;99.90;;;;;;5037639;28;20309;-85
2022/10/26 03:00:58;;;;;;;9.30;9.00;;;10.50;99.90;;;;;;5037145;28;20235;-85
2022/10/26 03:03:29;;;;;;;8.93;8.63;;;10.50;99.90;;;;;;5037483;28;20284;-85
2022/10/26 03:06:00;;;;;;;9.10;8.80;;;10.50;99.90;;;;;;5037280;28;20332;-84
2022/10/26 03:08:28;;;;;;;9.13;8.83;;;10.40;99.90;;;;;;5037404;28;20314;-85
2022/10/26 03:10:56;;;;;;;9.00;8.70;;;10.30;99.90;;;;;;5037709;28;20237;-85
2022/10/26 03:13:26;;;;;;;9.30;9.00;;;10.30;99.90;;;;;;5037025;28;20245;-85
2022/10/26 03:15:59;;;;;;;9.10;8.80;;;10.40;99.90;;;;;;5037136;28;20294;-85
2022/10/26 03:18:26;;;;;;;9.10;8.80;;;10.40;99.90;;;;;;5037338;28;20235;-84
2022/10/26 03:21:05;;;;;;;8.90;8.63;;;10.50;99.90;;;;;;5047160;28;20212;-85
2022/10/26 03:23:33;;;;;;;8.80;8.60;;;10.60;99.90;;;;;;5058516;28;20215;-84
2022/10/26 03:26:04;;;;;;;8.77;8.57;;;10.60;99.90;;;;;;5059376;28;20259;-84
2022/10/26 03:28:32;;;;;;;9.10;8.80;;;10.70;99.90;;;;;;5062173;28;20271;-83
2022/10/26 03:31:01;;;;;;;8.53;8.33;;;10.70;99.90;;;;;;5061639;28;20258;-85
2022/10/26 03:33:33;;;;;;;8.70;8.50;;;10.80;99.90;;;;;;5044795;28;20239;-86
2022/10/26 03:36:04;;;;;;;8.70;8.50;;;10.80;99.90;;;;;;5056665;28;20252;-85
2022/10/26 03:38:32;;;;;;;8.53;8.33;;;10.90;99.90;;;;;;5072599;28;20256;-85
2022/10/26 03:41:02;;;;;;;8.50;8.30;;;10.90;99.90;;;;;;5074081;28;20238;-85
2022/10/26 03:43:40;;;;;;;8.40;8.20;;;10.80;99.90;;;;;;5060660;28;20326;-85
2022/10/26 03:46:10;;;;;;;8.43;8.23;;;10.80;99.90;;;;;;5069120;28;20242;-84
2022/10/26 03:48:38;;;;;;;8.70;8.50;;;10.80;99.90;;;;;;5059769;28;20278;-85
2022/10/26 03:51:16;;;;;;;9.10;8.80;;;10.80;99.90;;;;;;5067998;28;20404;-85
2022/10/26 03:53:46;;;;;;;8.70;8.50;;;10.80;99.90;;;;;;5059671;28;20239;-85
2022/10/26 03:56:15;;;;;;;9.10;8.80;;;10.80;99.90;;;;;;5060112;28;20230;-85
2022/10/26 03:58:46;;;;;;;8.70;8.50;;;10.80;99.90;;;;;;5059732;28;20238;-85
2022/10/26 04:01:13;;;;;;;9.20;8.90;;;10.90;99.90;;;;;;5060182;28;20253;-85
2022/10/26 04:03:43;;;;;;;8.70;8.50;;;10.90;99.90;;;;;;5060828;28;20258;-85
2022/10/26 04:06:22;;;;;;;9.10;8.80;;;11.00;99.90;;;;;;5060141;28;20281;-85
2022/10/26 04:08:56;;;;;;;8.77;8.57;;;11.00;99.90;;;;;;5059788;28;20230;-85
2022/10/26 04:14:29;;;;;;;8.73;8.53;;;11.10;99.90;;;;;;5057755;28;20226;-86
2022/10/26 04:16:57;;;;;;;9.10;8.80;;;11.10;99.90;;;;;;5059898;28;20230;-86
2022/10/26 04:19:27;;;;;;;9.23;8.93;;;11.10;99.90;;;;;;5069434;28;20231;-85
2022/10/26 04:21:56;;;;;;;9.10;8.80;;;11.10;99.90;;;;;;5067608;28;20235;-85
2022/10/26 04:24:24;;;;;;;8.80;8.60;;;11.20;99.90;;;;;;5066999;28;20219;-85
2022/10/26 04:26:52;;;;;;;8.80;8.60;;;11.20;99.90;;;;;;5060872;28;20270;-85
2022/10/26 04:29:21;;;;;;;8.60;8.40;;;11.20;99.90;;;;;;5059578;28;20239;-85
2022/10/26 04:31:59;;;;;;;8.80;8.60;;;11.20;99.90;;;;;;5059875;28;20385;-84
2022/10/26 04:34:32;;;;;;;8.80;8.60;;;11.30;99.90;;;;;;5059978;28;20313;-85
2022/10/26 04:37:01;;;;;;;8.70;8.50;;;11.30;99.90;;;;;;5073909;28;20231;-85
2022/10/26 04:39:29;;;;;;;8.87;8.63;;;11.30;99.90;;;;;;5073739;28;20238;-85
2022/10/26 04:42:00;;;;;;;9.20;8.90;;;11.30;99.90;;;;;;5065296;28;20223;-86
2022/10/26 04:44:27;;;;;;;9.00;8.70;;;11.30;99.90;;;;;;5060787;28;20238;-85
2022/10/26 04:46:56;;;;;;;8.80;8.60;;;11.30;99.90;;;;;;5059750;28;20240;-85
2022/10/26 04:49:29;;;;;;;8.87;8.67;;;11.30;99.90;;;;;;5059574;28;20239;-85
2022/10/26 04:51:57;;;;;;;8.70;8.50;;;11.20;99.90;;;;;;5071410;28;20218;-84
2022/10/26 04:54:27;;;;;;;8.60;8.40;;;11.30;99.90;;;;;;5072859;28;20326;-85
2022/10/26 04:59:43;;;;;;;8.50;8.30;;;11.40;99.90;;;;;;5078801;28;20252;-85
2022/10/26 05:02:10;;;;;;;8.50;8.30;;;11.40;99.90;;;;;;5080887;28;20253;-85
2022/10/26 05:04:39;;;;;;;8.23;8.03;;;11.40;99.90;;;;;;5062239;28;20254;-85
2022/10/26 05:12:45;;;;;;;8.47;8.27;;;11.40;99.90;;;;;;5057312;28;20238;-85
2022/10/26 05:15:14;;;;;;;8.83;8.60;;;11.40;99.90;;;;;;5066954;28;20275;-85
2022/10/26 05:20:49;;;;;;;8.50;8.30;;;11.30;99.90;;;;;;5078372;28;20218;-85
2022/10/26 05:23:17;;;;;;;8.80;8.60;;;11.30;99.90;;;;;;5079179;28;20238;-85
2022/10/26 05:25:56;;;;;;;8.60;8.40;;;11.30;99.90;;;;;;5079348;28;21027;-85
2022/10/26 05:28:37;;;;;;;8.60;8.40;;;11.30;99.90;;;;;;5079023;28;20292;-85
2022/10/26 05:34:02;;;;;;;8.80;8.60;;;11.30;99.90;;;;;;5077801;28;20242;-85
2022/10/26 05:36:32;;;;;;;8.40;8.20;;;11.20;99.90;;;;;;5078797;28;20303;-85
2022/10/26 05:39:09;;;;;;;8.43;8.23;;;11.30;99.90;;;;;;5079026;28;20391;-84
2022/10/26 05:41:39;;;;;;;8.60;8.40;;;11.30;99.90;;;;;;5080993;28;20291;-84
2022/10/26 05:44:07;;;;;;;8.60;8.40;;;11.30;99.90;;;;;;5080949;28;20276;-84
2022/10/26 05:46:37;;;;;;;8.93;8.63;;;11.30;99.90;;;;;;5071927;28;20254;-83
2022/10/26 05:49:06;;;;;;;9.10;8.80;;;11.30;99.90;;;;;;5090308;22;20237;-86
2022/10/26 05:51:36;;;;;;;9.07;8.77;;;11.30;99.90;;;;;;5081346;28;20298;-86
2022/10/26 05:54:07;;;;;;;8.77;8.57;;;11.30;99.90;;;;;;5082177;28;20245;-86
2022/10/26 05:59:21;;;;;;;9.23;8.93;;;11.30;99.90;;;;;;5074822;28;20258;-85
2022/10/26 06:02:08;;;;;;;9.07;8.77;;;11.30;99.90;;;;;;5082767;28;20234;-85
2022/10/26 06:07:24;;;;;;;9.27;8.97;;;11.40;99.90;;;;;;5080253;28;20226;-86
2022/10/26 06:09:53;;;;;;;9.10;8.80;;;11.40;99.90;;;;;;5083189;28;20242;-85
2022/10/26 06:12:32;;;;;;;9.40;9.10;;;11.40;99.90;;;;;;5083083;28;20285;-86
2022/10/26 06:15:10;;;;;;;9.00;8.70;;;11.40;99.90;;;;;;5082888;28;20230;-85
2022/10/26 06:17:57;;;;;;;9.17;8.87;;;11.40;99.90;;;;;;5082570;28;20260;-85
2022/10/26 06:23:50;;;;;;;9.03;8.73;;;11.40;99.90;;;;;;5081616;28;20241;-86
2022/10/26 06:26:37;;;;;;;8.70;8.50;;;11.40;99.90;;;;;;5078558;28;20230;-87
2022/10/26 06:29:24;;;;;;;9.03;8.73;;;11.30;99.90;;;;;;5080167;28;20252;-86
2022/10/26 06:31:52;;;;;;;8.70;8.50;;;11.40;99.90;;;;;;5080205;28;20234;-86
2022/10/26 06:34:40;;;;;;;8.33;8.13;;;11.40;99.90;;;;;;5081707;28;20234;-87
2022/10/26 06:37:10;;;;;;;8.47;8.27;;;11.40;99.90;;;;;;5080813;28;20784;-85
2022/10/26 06:39:48;;;;;;;8.40;8.20;;;11.40;99.90;;;;;;5081310;28;20238;-87
2022/10/26 06:42:17;;;;;;;8.60;8.40;;;11.30;99.90;;;;;;5081539;28;20337;-88
2022/10/26 06:44:57;;;;;;;8.70;8.50;;;11.40;99.90;;;;;;5070739;28;20272;-86
2022/10/26 06:47:34;;;;;;;8.67;8.47;;;11.50;99.90;;;;;;5060742;28;20311;-90
2022/10/26 06:50:13;;;;;;;9.23;8.93;;;11.50;99.90;;;;;;5076486;28;20218;-89
2022/10/26 06:52:49;;;;;;;9.23;8.93;;;11.50;99.90;;;;;;5078645;28;20324;-87
2022/10/26 06:55:19;;;;;;;8.70;8.50;;;11.60;99.90;;;;;;5067078;28;20238;-87
2022/10/26 06:57:48;;;;;;;8.33;8.13;;;11.60;99.90;;;;;;5067366;28;20227;-85
2022/10/26 07:00:27;;;;;;;8.47;8.27;;;11.70;99.90;;;;;;5066775;28;20234;-85
2022/10/26 07:02:57;;;;;;;8.40;8.20;;;11.70;99.90;;;;;;5063278;28;20246;-85
2022/10/26 07:05:25;;;;;;;8.60;8.40;;;11.80;99.90;;;;;;5067096;28;20231;-87
2022/10/26 07:07:54;;;;;;;8.47;8.27;;;11.80;99.90;;;;;;5084659;28;20234;-85
2022/10/26 07:10:24;;;;;;;8.90;8.70;;;11.90;99.90;;;;;;5083332;28;20230;-85
2022/10/26 07:12:54;;;;;;;8.80;8.60;;;12.00;99.90;;;;;;5086802;28;20248;-87
2022/10/26 07:15:25;;;;;;;8.70;8.50;;;12.00;99.90;;;;;;5084421;28;20230;-85
2022/10/26 07:17:53;;;;;;;9.00;8.70;;;12.10;99.90;;;;;;5087711;28;20248;-85
2022/10/26 07:20:23;;;;;;;9.10;8.80;;;12.10;99.90;;;;;;5069692;28;20234;-86
2022/10/26 07:23:01;;;;;;;8.67;8.47;;;12.10;99.90;;;;;;5076547;28;20320;-85
2022/10/26 07:25:29;;;;;;;8.70;8.50;;;12.20;99.90;;;;;;5077271;28;20225;-85
2022/10/26 07:27:59;;;;;;;8.40;8.20;;;12.20;99.90;;;;;;5082498;28;20230;-85
2022/10/26 07:30:43;;;;;;;8.30;8.10;;;12.20;99.90;;;;;;5081660;28;20230;-84
2022/10/26 07:33:22;;;;;;;8.67;8.47;;;12.20;99.90;;;;;;5080063;28;20234;-87
2022/10/26 07:35:49;;;;;;;8.57;8.37;;;12.20;99.90;;;;;;5081025;28;20229;-85
2022/10/26 07:47:49;;;;;;;8.80;8.60;;;12.30;99.90;;;;;;5041097;28;20227;-90
2022/10/26 07:50:37;;;;;;;8.60;8.40;;;12.40;99.90;;;;;;5041729;28;20246;-89
2022/10/26 07:53:06;;;;;;;8.73;8.53;;;12.50;99.90;;;;;;5040649;28;20259;-87
2022/10/26 07:55:34;;;;;;;9.20;8.90;;;12.50;99.90;;;;;;5040581;28;20224;-89
2022/10/26 07:58:06;;;;;;;8.60;8.40;;;12.50;99.90;;;;;;5041483;28;20238;-89
2022/10/26 08:00:35;;;;;;;8.70;8.50;;;12.50;99.90;;;;;;5040544;28;20235;-89
2022/10/26 08:03:03;;;;;;;8.53;8.33;;;12.60;99.90;;;;;;5044786;28;20255;-88
2022/10/26 08:05:33;;;;;;;8.60;8.40;;;12.60;99.90;;;;;;5075962;28;20246;-84
2022/10/26 08:08:01;;;;;;;8.53;8.33;;;12.70;99.90;;;;;;5059532;28;20298;-85
2022/10/26 08:10:30;;;;;;;8.80;8.60;;;12.70;99.90;;;;;;5059823;28;20673;-85
2022/10/26 08:12:59;;;;;;;8.87;8.67;;;12.70;99.90;;;;;;5059843;28;20318;-84
2022/10/26 08:15:28;;;;;;;8.50;8.30;;;12.70;99.90;;;;;;5070740;28;20229;-84
2022/10/26 08:17:58;;;;;;;8.50;8.30;;;12.80;99.90;;;;;;5078720;28;20269;-84
2022/10/26 08:20:27;;;;;;;9.10;8.80;;;12.80;99.90;;;;;;5082762;28;20322;-84
2022/10/26 08:23:00;;;;;;;8.90;8.70;;;12.90;99.90;;;;;;5078283;28;20284;-86
2022/10/26 08:25:28;;;;;;;8.80;8.60;;;12.90;99.90;;;;;;5084681;28;20234;-85
2022/10/26 08:27:56;;;;;;;8.70;8.50;;;13.00;99.90;;;;;;5084148;28;20322;-86
2022/10/26 08:30:25;;;;;;;8.60;8.40;;;13.10;99.90;;;;;;5082883;28;20233;-86
2022/10/26 08:33:04;;;;;;;8.57;8.37;;;13.20;99.90;;;;;;5070620;28;20223;-85
2022/10/26 08:35:35;;;;;;;8.53;8.33;;;13.20;99.90;;;;;;5082625;28;20254;-87
2022/10/26 08:38:05;;;;;;;8.47;8.27;;;13.30;99.90;;;;;;5087617;28;20261;-86
2022/10/26 08:46:15;;;;;;;9.20;8.90;;;13.60;99.90;;;;;;5081588;28;20222;-83
2022/10/26 08:48:54;;;;;;;9.17;8.87;;;13.60;99.90;;;;;;5082509;28;20241;-87
2022/10/26 08:51:40;;;;;;;8.97;8.70;;;13.60;99.90;;;;;;5065712;28;20215;-85
2022/10/26 08:54:18;;;;;;;9.03;8.73;;;13.70;99.90;;;;;;5065038;28;20233;-84
2022/10/26 08:56:57;;;;;;;9.00;8.70;;;13.70;99.90;;;;;;5061777;28;20237;-83
2022/10/26 08:59:36;;;;;;;8.80;8.60;;;13.70;99.90;;;;;;5066060;28;20238;-83
2022/10/26 09:02:04;;;;;;;8.73;8.53;;;13.80;99.90;;;;;;5066915;28;20326;-84
2022/10/26 09:04:34;;;;;;;8.80;8.60;;;13.80;99.90;;;;;;5072775;28;20231;-84
2022/10/26 09:07:20;;;;;;;8.90;8.70;;;13.80;99.90;;;;;;5075241;28;20234;-84
2022/10/26 09:10:02;;;;;;;9.00;8.70;;;13.90;99.90;;;;;;5048349;28;20282;-84
2022/10/26 09:16:09;;;;;;;9.30;9.00;;;14.00;99.90;;;;;;5046088;28;20228;-86
2022/10/26 09:18:49;;;;;;;9.20;8.90;;;14.10;99.90;;;;;;5052611;28;20264;-87
2022/10/26 09:21:42;;;;;;;9.20;8.90;;;14.10;99.90;;;;;;5083422;28;20240;-87
2022/10/26 09:24:20;;;;;;;9.23;8.93;;;14.20;99.90;;;;;;5082118;28;20230;-87
2022/10/26 09:27:17;;;;;;;9.53;9.23;;;14.20;99.90;;;;;;5082155;28;20249;-87
2022/10/26 09:29:48;;;;;;;8.87;8.67;;;14.30;99.90;;;;;;5070860;28;20230;-86
2022/10/26 09:32:25;;;;;;;9.13;8.83;;;14.40;99.90;;;;;;5073429;28;20249;-87
2022/10/26 09:34:57;;;;;;;8.60;8.40;;;14.50;99.90;;;;;;5063177;28;20227;-89
2022/10/26 09:37:45;;;;;;;9.10;8.80;;;14.60;99.90;;;;;;5063702;28;20297;-90
2022/10/26 09:40:33;;;;;;;8.90;8.70;;;14.80;99.90;;;;;;5062605;28;20296;-90
2022/10/26 09:43:07;;;;;;;9.20;8.90;;;14.90;99.90;;;;;;5063331;28;20230;-86
2022/10/26 09:45:55;;;;;;;8.73;8.52;;;15.10;99.90;;;;;;5065779;28;20233;-87
2022/10/26 09:48:36;;;;;;;8.70;8.50;;;15.20;99.90;;;;;;5065887;28;20219;-87
2022/10/26 09:51:11;;;;;;;8.73;8.52;;;15.40;99.90;;;;;;5063203;28;20234;-88
2022/10/26 09:53:41;;;;;;;8.90;8.70;;;15.50;99.90;;;;;;5062297;28;20238;-85
2022/10/26 09:56:38;;;;;;;9.13;8.82;;;15.60;99.90;;;;;;5062233;28;20300;-89
2022/10/26 09:59:16;;;;;;;9.40;9.10;;;15.60;99.90;;;;;;5061016;28;20231;-86
2022/10/26 10:04:32;;;;;;;9.38;9.07;;;15.70;99.90;;;;;;5079877;28;20233;-87
2022/10/26 10:07:18;;;;;;;9.40;9.10;;;15.90;99.90;;;;;;5081788;28;20230;-86
2022/10/26 10:10:15;;;;;;;9.30;9.00;;;16.10;99.90;;;;;;5082667;28;20249;-86
2022/10/26 10:12:54;;;;;;;9.70;9.40;;;16.30;99.90;;;;;;5081027;28;20230;-87
2022/10/26 10:15:32;;;;;;;9.70;9.40;;;16.50;99.90;;;;;;5081224;28;20237;-88
2022/10/26 11:07:50;;;;;;;9.43;9.13;;;18.30;99.90;;;;;;5078183;28;20258;-86
2022/10/26 11:39:37;;;;;;;8.77;8.57;;;17.80;99.90;;;;;;4863197;29;20232;-83
2022/10/26 11:42:42;;;;;;;8.65;8.45;;;17.90;99.90;;;;;;4974271;28;20283;-84
2022/10/26 11:48:16;;;;;;;8.52;8.32;;;18.00;99.90;;;;;;5107487;22;20252;-80
2022/10/26 11:50:49;;;;;;;8.90;8.70;;;18.10;99.90;;;;;;5094050;28;20292;-79
2022/10/26 11:53:19;;;;;;;9.30;9.00;;;18.10;99.90;;;;;;5093429;28;20281;-78
2022/10/26 11:55:51;;;;;;;9.45;9.15;;;18.10;99.90;;;;;;5088030;28;20238;-79
2022/10/26 11:58:19;;;;;;;9.07;8.85;;;18.00;99.90;;;;;;5077388;28;20231;-79
2022/10/26 12:00:54;;;;;;;9.40;9.10;;;18.10;99.90;;;;;;5064156;28;20236;-78
2022/10/26 12:03:28;;;;;;;9.30;9.00;;;18.30;99.90;;;;;;5081307;28;20244;-79
2022/10/26 12:05:56;;;;;;;9.50;9.20;;;18.40;99.90;;;;;;5081045;28;20234;-79
2022/10/26 12:08:28;;;;;;;9.50;9.20;;;18.50;99.90;;;;;;5081936;28;20238;-79
2022/10/26 12:11:07;;;;;;;9.50;9.20;;;18.60;99.90;;;;;;5081879;28;20232;-80
2022/10/26 12:13:38;;;;;;;9.50;9.20;;;18.70;99.90;;;;;;5082104;28;20236;-79
2022/10/26 12:16:18;;;;;;;9.77;9.48;;;18.80;99.90;;;;;;5082266;28;20234;-78
2022/10/26 12:18:52;;;;;;;9.63;9.32;;;18.90;99.90;;;;;;5082632;28;20241;-80
2022/10/26 12:21:20;;;;;;;9.70;9.40;;;18.90;99.90;;;;;;5082864;28;20230;-79
2022/10/26 12:23:57;;;;;;;9.93;9.63;;;19.00;99.90;;;;;;5083769;28;20268;-79
2022/10/26 12:26:40;;;;;;;9.60;9.30;;;19.00;99.90;;;;;;5072459;28;20237;-79
2022/10/26 12:29:30;;;;;;;9.73;9.43;;;19.00;99.90;;;;;;5076970;28;20321;-79
2022/10/26 12:32:01;;;;;;;9.60;9.30;;;18.90;99.90;;;;;;5076208;28;20232;-80
2022/10/26 12:35:03;;;;;;;9.88;9.57;;;18.90;99.90;;;;;;5081802;28;20234;-79
2022/10/26 12:37:36;;;;;;;9.27;8.98;;;18.90;99.90;;;;;;5083013;28;20226;-80
2022/10/26 12:40:40;;;;;;;9.38;9.07;;;18.90;99.90;;;;;;5083181;28;20301;-80
2022/10/26 12:43:37;;;;;;;9.30;9.00;;;19.00;99.90;;;;;;5083642;28;20238;-79
2022/10/26 12:46:41;;;;;;;9.48;9.18;;;19.00;99.90;;;;;;5083662;28;20255;-79
2022/10/26 12:49:55;;;;;;;9.40;9.10;;;18.90;99.90;;;;;;5082956;28;20238;-79
2022/10/26 12:52:33;;;;;;;9.30;9.00;;;19.00;99.90;;;;;;5050028;28;20252;-79
2022/10/26 12:55:53;;;;;;;9.50;9.20;;;19.30;99.90;;;;;;5082159;28;20300;-79
2022/10/26 12:58:41;;;;;;;9.45;9.15;;;19.60;99.90;;;;;;5081556;28;20236;-79
2022/10/26 13:01:40;;;;;;;9.10;8.80;;;19.80;99.90;;;;;;5083387;28;20230;-79
2022/10/26 13:05:02;;;;;;;8.90;8.70;;;19.70;99.90;;;;;;5070487;28;20231;-79
2022/10/26 13:07:36;;;;;;;9.30;9.00;;;19.40;99.90;;;;;;5058915;28;20227;-77
2022/10/26 13:10:19;;;;;;;9.43;9.13;;;19.40;99.90;;;;;;5056096;28;20240;-77
2022/10/26 13:12:51;;;;;;;9.30;9.00;;;19.30;99.90;;;;;;5063115;28;20218;-80
2022/10/26 13:15:25;;;;;;;9.32;9.02;;;19.20;99.90;;;;;;5064816;28;20231;-79
2022/10/26 13:18:08;;;;;;;9.60;9.30;;;19.30;99.90;;;;;;5061057;28;20234;-78
2022/10/26 13:20:38;;;;;;;10.10;9.80;;;19.40;99.90;;;;;;5061000;28;20253;-80
2022/10/26 13:23:23;;;;;;;10.30;10.00;;;19.80;99.90;;;;;;5063060;28;20219;-79
2022/10/26 13:26:04;;;;;;;9.30;9.00;;;20.20;99.90;;;;;;5067049;28;20282;-80
2022/10/26 13:28:47;;;;;;;9.50;9.20;;;20.80;99.90;;;;;;5069865;28;20241;-79
2022/10/26 13:31:54;;;;;;;9.50;9.20;;;21.00;99.90;;;;;;5073308;28;20243;-79
2022/10/26 13:34:23;;;;;;;9.00;8.80;;;21.30;99.90;;;;;;5066786;28;20238;-79
2022/10/26 13:37:00;;;;;;;9.13;8.90;;;21.10;99.90;;;;;;5067894;28;20301;-80
2022/10/26 13:39:38;;;;;;;9.30;9.00;;;20.70;99.90;;;;;;5065639;28;20235;-85
2022/10/26 13:42:08;;;;;;;9.90;9.60;;;20.60;99.90;;;;;;5060770;28;20239;-85
2022/10/26 13:44:48;;;;;;;10.27;9.98;;;20.70;99.90;;;;;;5062427;28;20242;-84
2022/10/26 13:47:24;;;;;;;10.30;10.00;;;20.90;99.90;;;;;;5063700;28;20246;-80
2022/10/26 13:49:56;;;;;;;10.27;9.98;;;21.10;99.90;;;;;;5061370;28;20238;-80
2022/10/26 13:52:33;;;;;;;10.45;10.15;;;21.20;99.90;;;;;;5062364;28;20231;-79
2022/10/26 13:55:08;;;;;;;10.57;10.27;;;21.50;99.90;;;;;;5061201;28;20252;-80
2022/10/26 13:57:39;;;;;;;10.40;10.10;;;21.60;99.90;;;;;;5063017;28;20300;-79
2022/10/26 14:00:16;;;;;;;10.40;10.10;;;21.90;99.90;;;;;;5061903;28;20238;-80
2022/10/26 14:02:43;;;;;;;10.20;9.90;;;22.10;99.90;;;;;;5067492;28;20236;-81
2022/10/26 14:05:14;;;;;;;10.32;10.02;;;22.30;99.90;;;;;;5070719;28;20258;-80
2022/10/26 14:07:47;;;;;;;10.20;9.90;;;22.50;99.90;;;;;;5060831;28;20321;-79
2022/10/26 14:10:28;;;;;;;9.60;9.30;;;22.60;99.90;;;;;;5060117;28;20291;-80
2022/10/26 14:12:56;;;;;;;9.40;9.10;;;22.80;99.90;;;;;;5062202;28;20309;-80
2022/10/26 14:15:29;;;;;;;9.25;8.95;;;23.00;99.90;;;;;;5060591;28;20269;-79
2022/10/26 14:17:58;;;;;;;9.48;9.18;;;22.90;99.90;;;;;;5060851;28;20230;-80
2022/10/26 14:20:29;;;;;;;9.55;9.25;;;23.00;99.90;;;;;;5065746;28;20269;-80
2022/10/26 14:22:57;;;;;;;9.20;8.90;;;23.40;99.90;;;;;;5073887;28;20291;-79
2022/10/26 14:25:30;;;;;;;9.52;9.23;;;23.70;99.90;;;;;;5080836;28;20230;-79
2022/10/26 14:27:58;;;;;;;9.70;9.40;;;23.90;99.90;;;;;;5080406;28;20283;-80
2022/10/26 14:30:29;;;;;;;9.65;9.35;;;23.90;99.90;;;;;;5077963;28;20230;-80
2022/10/26 14:32:57;;;;;;;9.40;9.10;;;23.70;99.90;;;;;;5082163;28;20298;-80
2022/10/26 14:35:29;;;;;;;9.20;8.90;;;23.70;99.90;;;;;;5081771;28;20229;-80
2022/10/26 14:38:02;;;;;;;9.57;9.27;;;23.70;99.90;;;;;;5080954;28;20275;-80
2022/10/26 14:40:36;;;;;;;9.60;9.30;;;23.70;99.90;;;;;;5080481;28;20324;-79
2022/10/26 14:43:05;;;;;;;9.50;9.20;;;23.60;99.90;;;;;;5081490;28;20222;-80
2022/10/26 14:45:35;;;;;;;9.02;8.82;;;23.30;99.90;;;;;;5082556;28;20253;-79
2022/10/26 14:48:05;;;;;;;9.20;8.90;;;22.90;99.90;;;;;;5095517;28;20284;-80
2022/10/26 14:50:34;;;;;;;8.90;8.70;;;22.60;99.90;;;;;;5088849;28;20285;-79
2022/10/26 14:53:13;;;;;;;8.40;8.20;;;22.30;99.90;;;;;;5083818;28;20231;-79
2022/10/26 14:55:50;;;;;;;8.27;8.07;;;22.10;99.90;;;;;;5086184;28;20245;-81
2022/10/26 14:58:21;;;;;;;8.70;8.50;;;22.00;99.90;;;;;;5078157;28;20261;-80
2022/10/26 15:01:16;;;;;;;8.32;8.13;;;22.00;99.90;;;;;;5080128;28;20226;-79
2022/10/26 15:03:45;;;;;;;8.57;8.38;;;21.90;99.90;;;;;;5079155;28;20230;-79
2022/10/26 15:06:49;;;;;;;8.60;8.40;;;21.80;99.90;;;;;;5059250;28;20223;-78
2022/10/26 15:09:41;;;;;;;8.60;8.40;;;21.50;99.90;;;;;;5059766;28;20288;-82
2022/10/26 15:12:21;;;;;;;8.80;8.60;;;21.10;99.90;;;;;;5060140;28;20318;-84
2022/10/26 15:14:53;;;;;;;8.70;8.50;;;20.90;99.90;;;;;;5060876;28;20254;-83
2022/10/26 15:17:26;;;;;;;8.52;8.32;;;20.80;99.90;;;;;;5060832;28;20227;-83
2022/10/26 15:19:55;;;;;;;8.45;8.25;;;20.70;99.90;;;;;;5060450;28;20778;-82
2022/10/26 15:22:26;;;;;;;8.35;8.15;;;20.50;99.90;;;;;;5061658;28;20231;-82
2022/10/26 15:24:56;;;;;;;8.07;7.88;;;20.30;99.90;;;;;;5064281;28;20223;-82
2022/10/26 15:27:26;;;;;;;8.15;7.95;;;20.00;99.90;;;;;;5062127;28;20273;-81
2022/10/26 15:30:16;;;;;;;8.15;7.95;;;19.80;99.90;;;;;;5062190;28;20297;-82
2022/10/26 15:32:44;;;;;;;8.77;8.57;;;19.70;99.90;;;;;;5062512;28;20277;-82
2022/10/26 15:35:29;;;;;;;8.98;8.77;;;19.70;99.90;;;;;;5062562;28;20262;-82
2022/10/26 15:37:59;;;;;;;8.52;8.32;;;19.60;99.90;;;;;;5062130;28;20286;-82
2022/10/26 15:40:29;;;;;;;8.63;8.43;;;19.60;99.90;;;;;;5061318;28;20230;-82
2022/10/26 15:43:01;;;;;;;8.73;8.52;;;19.60;99.90;;;;;;5061988;28;20359;-82
2022/10/26 15:45:33;;;;;;;8.70;8.50;;;19.50;99.90;;;;;;5062127;28;20274;-79
2022/10/26 15:48:19;;;;;;;8.90;8.70;;;19.40;99.90;;;;;;5078689;28;20292;-82